Time;durP1;ratioP1;P1;durP2;ratioP2;P2;SDS_P1;SDS_P2;PMS_P1;PMS_P2;Temp;Humidity;BMP_temperature;BMP_pressure;BME280_temperature;BME280_humidity;BME280_pressure;Samples;Min_cycle;Max_cycle;Signal;HPM_P1;HPM_P2
2022/03/06 00:01:17;;;;;;;19.13;16.03;;;-1.50;99.90;;;;;;5005842;28;20490;-76
2022/03/06 00:03:45;;;;;;;20.00;15.57;;;-1.50;99.90;;;;;;5005538;28;20487;-76
2022/03/06 00:06:13;;;;;;;21.17;16.20;;;-1.60;99.90;;;;;;5005739;28;20540;-76
2022/03/06 00:08:40;;;;;;;20.57;15.47;;;-1.50;99.90;;;;;;5008076;28;20886;-76
2022/03/06 00:11:08;;;;;;;22.07;16.30;;;-1.60;99.90;;;;;;5009959;28;20468;-76
2022/03/06 00:13:35;;;;;;;22.07;16.37;;;-1.60;99.90;;;;;;4984440;28;20936;-76
2022/03/06 00:16:02;;;;;;;20.97;15.97;;;-1.60;99.90;;;;;;4992599;28;20451;-76
2022/03/06 00:18:30;;;;;;;21.53;15.80;;;-1.60;99.90;;;;;;5012882;28;20443;-76
2022/03/06 00:20:59;;;;;;;24.07;17.23;;;-1.60;99.90;;;;;;5005324;28;20440;-76
2022/03/06 00:23:26;;;;;;;24.47;16.47;;;-1.60;99.90;;;;;;5005146;28;20479;-76
2022/03/06 00:25:52;;;;;;;19.40;15.37;;;-1.70;99.90;;;;;;5006676;28;20431;-76
2022/03/06 00:28:19;;;;;;;19.63;16.03;;;-1.70;99.90;;;;;;5011435;28;20987;-76
2022/03/06 00:30:48;;;;;;;22.00;16.93;;;-1.80;99.90;;;;;;4995463;28;20945;-76
2022/03/06 00:33:15;;;;;;;23.60;16.20;;;-1.80;99.90;;;;;;4987830;28;20523;-75
2022/03/06 00:35:43;;;;;;;27.67;17.27;;;-1.80;99.90;;;;;;5005141;28;20460;-76
2022/03/06 00:38:10;;;;;;;25.93;18.43;;;-1.80;99.90;;;;;;5004365;28;20455;-76
2022/03/06 00:40:37;;;;;;;22.97;17.37;;;-1.80;99.90;;;;;;5008057;28;20433;-76
2022/03/06 00:43:04;;;;;;;24.17;17.67;;;-1.80;99.90;;;;;;5002300;28;20432;-75
2022/03/06 00:45:31;;;;;;;27.77;18.27;;;-1.80;99.90;;;;;;4983935;28;20480;-75
2022/03/06 00:47:58;;;;;;;19.63;15.30;;;-1.90;99.90;;;;;;5000363;28;20941;-76
2022/03/06 00:50:25;;;;;;;23.17;16.93;;;-1.90;99.90;;;;;;4984068;28;20441;-76
2022/03/06 00:52:53;;;;;;;22.47;16.43;;;-1.90;99.90;;;;;;4984263;28;20449;-76
2022/03/06 00:55:20;;;;;;;25.40;17.03;;;-2.00;99.90;;;;;;4984717;28;20467;-76
2022/03/06 00:57:47;;;;;;;22.17;16.47;;;-2.00;99.90;;;;;;5000617;28;20444;-75
2022/03/06 01:00:15;;;;;;;26.53;17.77;;;-2.10;99.90;;;;;;4984629;28;20455;-76
2022/03/06 01:02:42;;;;;;;22.50;16.70;;;-2.10;99.90;;;;;;4983608;28;20511;-75
2022/03/06 01:05:09;;;;;;;20.73;16.50;;;-2.20;99.90;;;;;;4983565;28;20483;-76
2022/03/06 01:07:36;;;;;;;19.47;16.70;;;-2.20;99.90;;;;;;5000523;28;20874;-75
2022/03/06 01:10:05;;;;;;;24.33;17.20;;;-2.20;99.90;;;;;;5002624;28;20447;-76
2022/03/06 01:12:32;;;;;;;22.43;16.60;;;-2.20;99.90;;;;;;5001098;28;20952;-75
2022/03/06 01:14:59;;;;;;;22.37;16.47;;;-2.20;99.90;;;;;;5008543;28;20538;-76
2022/03/06 01:17:26;;;;;;;23.07;16.43;;;-2.30;99.90;;;;;;5000124;28;20528;-76
2022/03/06 01:19:53;;;;;;;22.27;17.10;;;-2.30;99.90;;;;;;5000800;28;20874;-75
2022/03/06 01:22:20;;;;;;;21.97;16.70;;;-2.30;99.90;;;;;;5000780;28;20435;-75
2022/03/06 01:24:47;;;;;;;25.00;17.43;;;-2.30;99.90;;;;;;4983104;28;20480;-75
2022/03/06 01:27:15;;;;;;;23.70;16.63;;;-2.30;99.90;;;;;;4984243;28;20813;-76
2022/03/06 01:29:41;;;;;;;26.63;18.73;;;-2.30;99.90;;;;;;4983119;28;20490;-75
2022/03/06 01:32:08;;;;;;;22.50;17.57;;;-2.30;99.90;;;;;;4983877;28;20511;-76
2022/03/06 01:34:35;;;;;;;24.37;17.20;;;-2.30;99.90;;;;;;5010177;28;20458;-77
2022/03/06 01:37:02;;;;;;;20.27;16.77;;;-2.40;99.90;;;;;;5004953;28;20822;-76
2022/03/06 01:39:29;;;;;;;21.87;15.87;;;-2.30;99.90;;;;;;4982765;28;20462;-75
2022/03/06 01:41:56;;;;;;;20.63;15.57;;;-2.40;99.90;;;;;;5005141;28;20862;-75
2022/03/06 01:44:24;;;;;;;25.37;16.77;;;-2.40;99.90;;;;;;4994341;28;20499;-75
2022/03/06 01:46:51;;;;;;;22.37;17.43;;;-2.40;99.90;;;;;;4997013;28;20432;-75
2022/03/06 01:49:18;;;;;;;23.03;16.97;;;-2.40;99.90;;;;;;5002231;28;20452;-76
2022/03/06 01:51:46;;;;;;;23.17;17.23;;;-2.50;99.90;;;;;;5003251;28;20779;-75
2022/03/06 01:54:13;;;;;;;21.00;16.37;;;-2.40;99.90;;;;;;5003686;28;20527;-75
2022/03/06 01:56:41;;;;;;;22.00;17.10;;;-2.50;99.90;;;;;;5004865;28;20435;-76
2022/03/06 01:59:08;;;;;;;21.93;16.50;;;-2.50;99.90;;;;;;4985918;28;20455;-76
2022/03/06 02:01:36;;;;;;;24.17;16.43;;;-2.50;99.90;;;;;;4994569;28;20968;-75
2022/03/06 02:04:03;;;;;;;22.10;16.83;;;-2.50;99.90;;;;;;4985741;28;20492;-75
2022/03/06 02:06:30;;;;;;;21.97;16.13;;;-2.50;99.90;;;;;;4988931;28;20452;-75
2022/03/06 02:08:57;;;;;;;26.80;17.00;;;-2.50;99.90;;;;;;5011464;28;20552;-75
2022/03/06 02:11:26;;;;;;;22.87;16.83;;;-2.50;99.90;;;;;;5003557;28;20427;-76
2022/03/06 02:13:54;;;;;;;22.87;17.20;;;-2.40;99.90;;;;;;4986063;28;21015;-75
2022/03/06 02:16:21;;;;;;;20.10;16.13;;;-2.50;99.90;;;;;;5002928;28;20526;-74
2022/03/06 02:18:49;;;;;;;22.40;17.20;;;-2.50;99.90;;;;;;4987853;28;20515;-75
2022/03/06 02:21:17;;;;;;;24.83;17.83;;;-2.50;99.90;;;;;;4984210;28;20463;-76
2022/03/06 02:23:44;;;;;;;24.17;17.60;;;-2.50;99.90;;;;;;5005897;28;20459;-76
2022/03/06 02:26:11;;;;;;;25.57;17.97;;;-2.50;99.90;;;;;;5009242;28;20443;-75
2022/03/06 02:28:38;;;;;;;21.53;16.43;;;-2.50;99.90;;;;;;4985813;28;20455;-75
2022/03/06 02:31:05;;;;;;;22.77;16.70;;;-2.50;99.90;;;;;;5002949;28;20443;-75
2022/03/06 02:33:32;;;;;;;24.03;16.63;;;-2.50;99.90;;;;;;4999919;28;20451;-76
2022/03/06 02:35:59;;;;;;;22.37;17.00;;;-2.50;99.90;;;;;;5008321;28;20486;-75
2022/03/06 02:38:27;;;;;;;23.53;18.10;;;-2.60;99.90;;;;;;5002721;28;20438;-75
2022/03/06 02:40:55;;;;;;;22.90;17.60;;;-2.60;99.90;;;;;;4985684;28;20495;-76
2022/03/06 02:43:22;;;;;;;23.10;18.43;;;-2.60;99.90;;;;;;5003210;28;20437;-76
2022/03/06 02:45:48;;;;;;;21.83;16.83;;;-2.60;99.90;;;;;;5005124;28;20534;-76
2022/03/06 02:48:17;;;;;;;22.90;16.27;;;-2.70;99.90;;;;;;5007013;28;20451;-75
2022/03/06 02:50:45;;;;;;;23.70;16.60;;;-2.80;99.90;;;;;;5005800;28;20448;-75
2022/03/06 02:53:12;;;;;;;24.40;17.47;;;-2.80;99.90;;;;;;5009089;28;20431;-76
2022/03/06 02:55:42;;;;;;;22.47;17.27;;;-2.80;99.90;;;;;;5011299;28;20517;-75
2022/03/06 02:58:08;;;;;;;22.63;17.03;;;-2.80;99.90;;;;;;5009662;28;20939;-75
2022/03/06 03:00:36;;;;;;;21.67;16.90;;;-2.80;99.90;;;;;;5003890;28;21236;-76
2022/03/06 03:03:03;;;;;;;32.07;19.17;;;-2.90;99.90;;;;;;4987912;28;21071;-75
2022/03/06 03:05:29;;;;;;;22.67;17.53;;;-2.90;99.90;;;;;;5006956;28;20501;-75
2022/03/06 03:07:57;;;;;;;23.70;18.30;;;-3.00;99.90;;;;;;5005478;28;20439;-76
2022/03/06 03:10:25;;;;;;;23.43;17.67;;;-3.00;99.90;;;;;;5005472;28;20815;-76
2022/03/06 03:12:54;;;;;;;26.23;18.63;;;-3.10;99.90;;;;;;5008079;28;20436;-76
2022/03/06 03:15:21;;;;;;;23.20;17.40;;;-3.10;99.90;;;;;;5007753;28;20507;-76
2022/03/06 03:17:48;;;;;;;24.93;18.73;;;-3.10;99.90;;;;;;4990355;28;20884;-75
2022/03/06 03:20:15;;;;;;;28.23;17.57;;;-3.10;99.90;;;;;;4995263;28;20816;-75
2022/03/06 03:22:43;;;;;;;26.70;18.03;;;-3.10;99.90;;;;;;4988895;28;20527;-76
2022/03/06 03:25:10;;;;;;;24.33;17.70;;;-3.00;99.90;;;;;;5006233;28;20483;-76
2022/03/06 03:27:38;;;;;;;27.80;18.50;;;-3.10;99.90;;;;;;4991375;28;20949;-75
2022/03/06 03:30:08;;;;;;;22.90;17.60;;;-3.20;99.90;;;;;;4985842;28;20819;-75
2022/03/06 03:32:35;;;;;;;23.10;17.57;;;-3.30;99.90;;;;;;5010004;28;20444;-76
2022/03/06 03:35:03;;;;;;;26.23;17.27;;;-3.30;99.90;;;;;;4993366;28;20525;-76
2022/03/06 03:37:29;;;;;;;27.43;18.07;;;-3.20;99.90;;;;;;5004252;28;20525;-76
2022/03/06 03:39:56;;;;;;;25.77;17.87;;;-3.20;99.90;;;;;;4988666;28;20449;-75
2022/03/06 03:42:23;;;;;;;25.37;18.20;;;-3.10;99.90;;;;;;4986864;28;20983;-75
2022/03/06 03:44:50;;;;;;;26.00;18.37;;;-3.10;99.90;;;;;;5007751;28;20495;-75
2022/03/06 03:47:18;;;;;;;23.33;17.53;;;-3.00;99.90;;;;;;5010701;28;20947;-75
2022/03/06 03:49:45;;;;;;;20.30;16.37;;;-3.00;99.90;;;;;;4991612;28;20464;-76
2022/03/06 03:52:12;;;;;;;26.67;18.40;;;-3.00;99.90;;;;;;5013601;28;20451;-78
2022/03/06 03:54:38;;;;;;;24.90;16.90;;;-3.00;99.90;;;;;;5026420;28;20459;-78
2022/03/06 03:57:05;;;;;;;23.00;17.07;;;-3.00;99.90;;;;;;5016538;28;20942;-76
2022/03/06 03:59:32;;;;;;;25.67;17.13;;;-3.10;99.90;;;;;;4979985;28;20456;-76
2022/03/06 04:01:59;;;;;;;24.63;16.40;;;-3.10;99.90;;;;;;5017198;28;20451;-76
2022/03/06 04:04:28;;;;;;;25.47;18.40;;;-3.10;99.90;;;;;;4995502;28;20468;-77
2022/03/06 04:06:55;;;;;;;23.50;18.30;;;-3.10;99.90;;;;;;5000387;28;20457;-76
2022/03/06 04:09:21;;;;;;;26.47;17.63;;;-3.00;99.90;;;;;;5005744;28;20467;-76
2022/03/06 04:11:48;;;;;;;23.40;17.27;;;-3.10;99.90;;;;;;5004630;28;20447;-76
2022/03/06 04:14:15;;;;;;;23.80;17.23;;;-3.10;99.90;;;;;;5011200;28;20553;-76
2022/03/06 04:16:42;;;;;;;23.37;17.40;;;-3.20;99.90;;;;;;4991757;28;20460;-76
2022/03/06 04:19:09;;;;;;;24.90;17.50;;;-3.20;99.90;;;;;;5001488;28;20942;-76
2022/03/06 04:21:38;;;;;;;22.00;16.33;;;-3.10;99.90;;;;;;5003397;28;20451;-77
2022/03/06 04:24:05;;;;;;;25.17;17.63;;;-3.10;99.90;;;;;;5017302;28;20454;-76
2022/03/06 04:26:33;;;;;;;22.60;16.80;;;-3.10;99.90;;;;;;5010250;28;20501;-75
2022/03/06 04:28:59;;;;;;;27.17;18.33;;;-3.10;99.90;;;;;;4997540;28;20455;-76
2022/03/06 04:31:27;;;;;;;25.40;17.67;;;-3.00;99.90;;;;;;5027386;28;20951;-76
2022/03/06 04:33:54;;;;;;;22.87;17.47;;;-3.00;99.90;;;;;;5012770;28;20475;-76
2022/03/06 04:36:21;;;;;;;27.30;18.60;;;-3.00;99.90;;;;;;4999500;28;20777;-75
2022/03/06 04:38:49;;;;;;;27.80;17.77;;;-3.00;99.90;;;;;;5000140;28;20432;-76
2022/03/06 04:41:17;;;;;;;24.00;17.83;;;-3.00;99.90;;;;;;5003341;28;20450;-76
2022/03/06 04:43:44;;;;;;;21.40;16.90;;;-3.00;99.90;;;;;;4991537;28;20483;-77
2022/03/06 04:46:11;;;;;;;25.10;17.17;;;-3.00;99.90;;;;;;5009411;28;20487;-76
2022/03/06 04:48:38;;;;;;;28.40;18.77;;;-3.00;99.90;;;;;;4994649;28;20459;-77
2022/03/06 04:51:05;;;;;;;26.50;18.73;;;-3.10;99.90;;;;;;5006276;28;20443;-76
2022/03/06 04:53:32;;;;;;;24.00;17.43;;;-3.10;99.90;;;;;;4991537;28;20448;-76
2022/03/06 04:56:00;;;;;;;27.67;17.07;;;-3.20;99.90;;;;;;5002646;28;20513;-77
2022/03/06 04:58:27;;;;;;;24.70;16.17;;;-3.10;99.90;;;;;;5007455;28;20451;-76
2022/03/06 05:00:54;;;;;;;22.27;17.17;;;-3.20;99.90;;;;;;5009285;28;20789;-76
2022/03/06 05:03:21;;;;;;;22.40;16.57;;;-3.20;99.90;;;;;;5001910;28;20443;-77
2022/03/06 05:05:48;;;;;;;23.00;16.17;;;-3.30;99.90;;;;;;5006337;28;20998;-77
2022/03/06 05:08:15;;;;;;;22.33;16.30;;;-3.30;99.90;;;;;;5005574;28;20453;-76
2022/03/06 05:10:42;;;;;;;24.67;17.17;;;-3.30;99.90;;;;;;5006340;28;20466;-77
2022/03/06 05:13:10;;;;;;;24.77;18.50;;;-3.30;99.90;;;;;;4991099;28;20505;-76
2022/03/06 05:15:37;;;;;;;22.63;17.07;;;-3.20;99.90;;;;;;4994237;28;20478;-77
2022/03/06 05:18:04;;;;;;;23.00;17.20;;;-3.20;99.90;;;;;;4993260;28;20622;-76
2022/03/06 05:20:32;;;;;;;21.07;17.33;;;-3.20;99.90;;;;;;4998043;28;20447;-76
2022/03/06 05:22:59;;;;;;;23.17;16.53;;;-3.20;99.90;;;;;;4986645;28;20451;-76
2022/03/06 05:25:27;;;;;;;23.00;16.33;;;-3.20;99.90;;;;;;5001538;28;20484;-77
2022/03/06 05:27:54;;;;;;;24.00;16.70;;;-3.20;99.90;;;;;;5002726;28;20466;-78
2022/03/06 05:30:22;;;;;;;19.50;15.30;;;-3.10;99.90;;;;;;5029708;23;20484;-78
2022/03/06 05:32:49;;;;;;;23.57;16.90;;;-3.10;99.90;;;;;;5006486;28;20428;-77
2022/03/06 05:35:16;;;;;;;21.33;15.93;;;-3.00;99.90;;;;;;4990597;28;20462;-78
2022/03/06 05:37:43;;;;;;;20.97;15.20;;;-3.00;99.90;;;;;;4991147;28;20822;-77
2022/03/06 05:40:10;;;;;;;21.83;16.57;;;-3.00;99.90;;;;;;5012111;28;20461;-78
2022/03/06 05:42:37;;;;;;;22.10;17.23;;;-3.00;99.90;;;;;;5004052;28;20446;-79
2022/03/06 05:45:05;;;;;;;21.47;16.90;;;-3.10;99.90;;;;;;5006997;28;20478;-80
2022/03/06 05:47:33;;;;;;;22.40;16.17;;;-3.10;99.90;;;;;;4999645;28;20450;-81
2022/03/06 05:50:00;;;;;;;21.83;16.43;;;-3.10;99.90;;;;;;5003441;28;20472;-79
2022/03/06 05:52:27;;;;;;;20.33;15.70;;;-3.00;99.90;;;;;;5001558;28;20466;-78
2022/03/06 05:54:54;;;;;;;24.53;17.03;;;-3.10;99.90;;;;;;5018216;28;20458;-78
2022/03/06 05:57:21;;;;;;;22.07;15.63;;;-3.10;99.90;;;;;;5016251;28;20462;-78
2022/03/06 05:59:47;;;;;;;22.73;16.97;;;-3.10;99.90;;;;;;5022903;28;20527;-78
2022/03/06 06:02:14;;;;;;;24.17;16.37;;;-3.10;99.90;;;;;;5002011;28;20467;-78
2022/03/06 06:04:43;;;;;;;23.07;17.03;;;-3.10;99.90;;;;;;5017619;28;20442;-78
2022/03/06 06:07:11;;;;;;;22.33;16.67;;;-3.10;99.90;;;;;;5011496;28;20498;-78
2022/03/06 06:09:38;;;;;;;24.97;16.27;;;-3.20;99.90;;;;;;4989934;28;20479;-77
2022/03/06 06:12:05;;;;;;;26.70;18.30;;;-3.20;99.90;;;;;;5009307;28;20448;-77
2022/03/06 06:14:32;;;;;;;24.83;18.20;;;-3.10;99.90;;;;;;4991130;28;20482;-77
2022/03/06 06:16:59;;;;;;;24.77;17.23;;;-3.10;99.90;;;;;;4996364;28;20458;-78
2022/03/06 06:19:26;;;;;;;24.80;16.13;;;-3.00;99.90;;;;;;5011024;28;20460;-79
2022/03/06 06:21:54;;;;;;;22.40;17.27;;;-3.00;99.90;;;;;;5010783;28;20446;-77
2022/03/06 06:24:21;;;;;;;25.30;17.40;;;-2.90;99.90;;;;;;4989943;28;20515;-78
2022/03/06 06:26:51;;;;;;;23.53;17.33;;;-2.90;99.90;;;;;;5009037;28;20480;-78
2022/03/06 06:29:18;;;;;;;22.03;16.43;;;-2.80;99.90;;;;;;5025615;28;20900;-78
2022/03/06 06:31:45;;;;;;;24.60;17.67;;;-2.80;99.90;;;;;;5001096;28;20451;-79
2022/03/06 06:34:13;;;;;;;22.37;15.93;;;-2.80;99.90;;;;;;5001115;28;20455;-79
2022/03/06 06:36:40;;;;;;;26.07;17.70;;;-2.70;99.90;;;;;;5000440;28;20451;-81
2022/03/06 06:39:09;;;;;;;23.80;18.37;;;-2.70;99.90;;;;;;5018031;28;20455;-79
2022/03/06 06:41:36;;;;;;;23.33;16.77;;;-2.50;99.90;;;;;;5019264;28;20460;-78
2022/03/06 06:44:05;;;;;;;25.63;18.40;;;-2.40;99.90;;;;;;5003570;28;20516;-78
2022/03/06 06:46:33;;;;;;;26.43;18.70;;;-2.20;99.90;;;;;;5024288;28;20475;-80
2022/03/06 06:49:00;;;;;;;25.17;17.87;;;-2.00;99.90;;;;;;4992546;28;20519;-77
2022/03/06 06:51:28;;;;;;;30.27;18.13;;;-1.80;99.90;;;;;;5005997;28;20460;-77
2022/03/06 06:53:55;;;;;;;26.97;18.10;;;-1.70;99.90;;;;;;5010351;28;20425;-77
2022/03/06 06:56:23;;;;;;;26.60;18.13;;;-1.50;99.90;;;;;;5004128;28;20862;-77
2022/03/06 06:58:50;;;;;;;28.20;18.73;;;-1.30;99.90;;;;;;5014882;28;20455;-77
2022/03/06 07:01:18;;;;;;;23.67;17.47;;;-1.20;99.90;;;;;;5014379;28;20447;-77
2022/03/06 07:03:45;;;;;;;23.10;18.43;;;-0.90;99.90;;;;;;4997276;28;20456;-77
2022/03/06 07:06:12;;;;;;;24.10;18.73;;;-0.70;99.90;;;;;;5014401;28;20569;-77
2022/03/06 07:08:39;;;;;;;26.37;18.77;;;-0.50;99.90;;;;;;5010340;28;20455;-77
2022/03/06 07:11:06;;;;;;;24.17;18.60;;;-0.20;99.90;;;;;;5014851;28;20534;-77
2022/03/06 07:13:34;;;;;;;23.00;18.03;;;0.10;99.90;;;;;;5009641;28;20939;-77
2022/03/06 07:16:01;;;;;;;28.30;18.63;;;0.40;99.90;;;;;;5014561;28;20451;-77
2022/03/06 07:18:28;;;;;;;31.63;19.73;;;0.60;99.90;;;;;;4995999;28;20444;-77
2022/03/06 07:20:54;;;;;;;26.60;20.10;;;0.80;99.90;;;;;;5015264;28;20957;-77
2022/03/06 07:23:21;;;;;;;28.07;20.57;;;1.00;99.90;;;;;;5014932;28;20440;-77
2022/03/06 07:25:48;;;;;;;26.87;20.20;;;1.20;99.90;;;;;;5013215;28;20536;-78
2022/03/06 07:28:15;;;;;;;22.83;18.60;;;1.40;99.90;;;;;;4988740;28;20561;-76
2022/03/06 07:30:43;;;;;;;23.47;19.13;;;1.70;99.90;;;;;;5010193;28;21043;-77
2022/03/06 07:33:10;;;;;;;21.57;17.33;;;1.90;99.90;;;;;;5014952;28;20432;-77
2022/03/06 07:35:37;;;;;;;20.43;16.77;;;2.10;99.90;;;;;;4997212;28;20965;-77
2022/03/06 07:38:04;;;;;;;24.97;18.50;;;2.10;99.90;;;;;;5007450;28;20449;-77
2022/03/06 07:40:31;;;;;;;20.50;16.57;;;2.20;99.90;;;;;;5014644;28;20462;-77
2022/03/06 07:42:58;;;;;;;23.90;18.27;;;2.40;99.90;;;;;;4997144;28;20451;-77
2022/03/06 07:45:25;;;;;;;21.17;17.10;;;2.40;99.90;;;;;;5004763;28;20435;-77
2022/03/06 07:47:53;;;;;;;21.50;16.47;;;2.50;99.90;;;;;;5008217;28;20431;-77
2022/03/06 07:50:20;;;;;;;21.73;16.73;;;2.90;99.90;;;;;;4991066;28;20240;-77
2022/03/06 07:52:47;;;;;;;20.70;16.17;;;3.10;99.90;;;;;;5015302;28;20282;-78
2022/03/06 07:55:14;;;;;;;20.60;16.60;;;3.20;99.90;;;;;;4993599;28;20514;-77
2022/03/06 07:57:41;;;;;;;19.20;15.33;;;3.40;99.90;;;;;;5013745;28;20657;-78
2022/03/06 08:00:11;;;;;;;21.30;17.53;;;3.60;99.90;;;;;;5012432;28;20598;-78
2022/03/06 08:02:38;;;;;;;21.90;17.83;;;3.70;99.90;;;;;;5013937;28;20586;-77
2022/03/06 08:05:07;;;;;;;20.63;17.27;;;3.80;99.90;;;;;;5006292;28;20273;-77
2022/03/06 08:07:34;;;;;;;20.53;15.97;;;4.00;99.90;;;;;;5007959;28;20216;-78
2022/03/06 08:10:04;;;;;;;20.93;17.80;;;4.20;99.90;;;;;;4997051;28;20227;-77
2022/03/06 08:12:31;;;;;;;22.03;17.70;;;4.60;99.90;;;;;;4989348;28;20740;-78
2022/03/06 08:14:58;;;;;;;20.40;17.30;;;4.60;99.90;;;;;;5014249;28;20303;-77
2022/03/06 08:17:24;;;;;;;25.73;18.30;;;4.70;99.90;;;;;;5004955;28;20190;-76
2022/03/06 08:19:52;;;;;;;21.10;16.07;;;4.60;99.90;;;;;;4991971;28;20284;-77
2022/03/06 08:22:22;;;;;;;19.37;15.93;;;4.90;99.90;;;;;;5011499;28;20201;-78
2022/03/06 08:24:49;;;;;;;20.27;16.90;;;4.90;99.90;;;;;;5015888;28;20228;-78
2022/03/06 08:27:16;;;;;;;19.57;15.33;;;4.80;99.90;;;;;;5006233;28;20311;-77
2022/03/06 08:29:43;;;;;;;20.23;15.50;;;5.00;99.90;;;;;;5008243;28;20278;-78
2022/03/06 08:32:10;;;;;;;21.33;17.07;;;5.40;99.90;;;;;;5009739;28;20206;-78
2022/03/06 08:34:37;;;;;;;19.60;15.93;;;5.50;99.90;;;;;;4989361;28;20725;-77
2022/03/06 08:37:04;;;;;;;21.53;13.60;;;5.60;99.90;;;;;;4988641;28;20205;-78
2022/03/06 08:39:33;;;;;;;22.27;13.13;;;5.70;99.90;;;;;;5006626;28;20213;-78
2022/03/06 08:42:00;;;;;;;18.90;13.03;;;5.70;99.90;;;;;;5014422;28;20203;-78
2022/03/06 08:44:27;;;;;;;21.03;13.47;;;5.70;99.90;;;;;;4988072;28;20202;-77
2022/03/06 08:46:54;;;;;;;18.27;13.23;;;6.00;99.90;;;;;;4987732;28;20231;-78
2022/03/06 08:49:20;;;;;;;20.57;14.10;;;6.30;99.90;;;;;;5014429;28;20220;-78
2022/03/06 08:51:47;;;;;;;19.63;13.47;;;6.20;99.90;;;;;;5007996;28;20199;-78
2022/03/06 08:54:15;;;;;;;21.20;13.63;;;6.30;99.90;;;;;;5011915;28;20200;-77
2022/03/06 08:56:43;;;;;;;21.37;16.27;;;6.50;99.90;;;;;;5003786;28;20247;-77
2022/03/06 08:59:10;;;;;;;20.03;16.87;;;6.20;99.90;;;;;;5010186;28;20251;-77
2022/03/06 09:01:37;;;;;;;20.77;14.67;;;6.50;99.90;;;;;;5013063;28;20582;-77
2022/03/06 09:04:04;;;;;;;20.77;15.40;;;6.40;99.90;;;;;;5010241;28;20196;-78
2022/03/06 09:06:31;;;;;;;19.13;14.73;;;6.30;99.90;;;;;;5006659;28;20643;-78
2022/03/06 09:08:58;;;;;;;20.27;13.23;;;6.40;99.90;;;;;;5013809;28;20240;-76
2022/03/06 09:11:25;;;;;;;18.47;12.97;;;6.40;99.90;;;;;;4993020;28;20229;-79
2022/03/06 09:13:53;;;;;;;19.40;15.73;;;6.70;99.90;;;;;;4999885;28;20812;-78
2022/03/06 09:16:26;;;;;;;21.33;16.67;;;6.60;99.90;;;;;;5004344;28;20594;-78
2022/03/06 09:18:52;;;;;;;17.80;15.73;;;6.80;99.90;;;;;;5002193;28;20219;-79
2022/03/06 09:21:19;;;;;;;20.63;14.80;;;6.80;99.90;;;;;;5002309;28;20204;-78
2022/03/06 09:23:46;;;;;;;20.48;16.52;;;7.10;99.90;;;;;;5021504;28;20429;-79
2022/03/06 09:26:13;;;;;;;18.17;13.47;;;6.90;99.90;;;;;;5009860;28;20231;-78
2022/03/06 09:28:40;;;;;;;21.00;13.33;;;7.20;99.90;;;;;;4994248;28;20196;-78
2022/03/06 09:31:08;;;;;;;20.10;15.23;;;7.40;99.90;;;;;;5015577;28;20215;-78
2022/03/06 09:33:35;;;;;;;20.30;14.60;;;7.50;99.90;;;;;;4999304;28;20207;-78
2022/03/06 09:36:02;;;;;;;17.77;12.53;;;7.50;99.90;;;;;;5017150;28;20199;-79
2022/03/06 09:38:29;;;;;;;17.77;15.17;;;7.60;99.90;;;;;;5010211;28;20284;-77
2022/03/06 09:41:00;;;;;;;18.10;14.13;;;7.70;99.90;;;;;;4992407;28;20209;-79
2022/03/06 09:43:27;;;;;;;22.63;13.23;;;7.60;99.90;;;;;;5009179;28;20200;-78
2022/03/06 09:46:03;;;;;;;19.20;15.80;;;7.20;99.90;;;;;;5025817;28;20391;-79
2022/03/06 09:48:32;;;;;;;21.93;16.50;;;7.10;99.90;;;;;;5006965;28;20200;-78
2022/03/06 09:51:01;;;;;;;20.40;16.17;;;7.20;99.90;;;;;;5011501;28;20247;-78
2022/03/06 09:53:27;;;;;;;19.67;15.63;;;7.00;99.90;;;;;;5017411;28;20270;-78
2022/03/06 09:55:54;;;;;;;19.23;15.53;;;7.10;99.90;;;;;;5022617;28;20574;-79
2022/03/06 09:58:21;;;;;;;19.90;16.03;;;7.20;99.90;;;;;;5028240;28;20215;-78
2022/03/06 10:00:48;;;;;;;18.93;16.30;;;7.40;99.90;;;;;;5022244;28;20279;-77
2022/03/06 10:03:18;;;;;;;19.07;15.93;;;7.00;99.90;;;;;;5005069;28;20738;-80
2022/03/06 10:05:47;;;;;;;20.83;15.47;;;7.00;99.90;;;;;;5017515;28;20192;-79
2022/03/06 10:08:22;;;;;;;18.30;15.63;;;6.90;99.90;;;;;;5012371;28;20238;-79
2022/03/06 10:10:50;;;;;;;18.43;15.40;;;6.50;99.90;;;;;;5021054;28;20198;-80
2022/03/06 10:13:23;;;;;;;19.50;14.67;;;6.60;99.90;;;;;;4999327;28;20196;-79
2022/03/06 10:16:12;;;;;;;17.87;15.13;;;7.10;99.90;;;;;;4997599;28;20288;-79
2022/03/06 10:18:42;;;;;;;20.03;15.23;;;7.20;99.90;;;;;;5010508;28;20203;-79
2022/03/06 10:21:22;;;;;;;18.60;14.53;;;7.40;99.90;;;;;;4999385;28;20239;-82
2022/03/06 10:23:51;;;;;;;16.77;13.50;;;7.10;99.90;;;;;;5019841;28;20203;-78
2022/03/06 10:26:20;;;;;;;15.57;12.60;;;6.90;99.90;;;;;;5003393;28;20214;-78
2022/03/06 10:28:50;;;;;;;15.73;12.90;;;6.90;99.10;;;;;;5004442;28;20275;-77
2022/03/06 10:31:19;;;;;;;14.23;12.73;;;6.90;99.10;;;;;;5005240;28;20743;-78
2022/03/06 10:34:14;;;;;;;16.60;13.43;;;6.80;98.70;;;;;;5022012;28;20196;-77
2022/03/06 10:36:45;;;;;;;15.63;12.37;;;6.60;98.40;;;;;;5007756;28;20297;-77
2022/03/06 10:39:15;;;;;;;14.97;12.53;;;6.50;98.20;;;;;;5020008;28;20228;-78
2022/03/06 10:41:45;;;;;;;15.47;12.43;;;6.40;98.50;;;;;;5012878;28;20272;-78
2022/03/06 10:44:13;;;;;;;17.50;13.40;;;6.40;98.80;;;;;;5019936;28;20664;-77
2022/03/06 10:46:42;;;;;;;14.73;13.23;;;6.10;98.00;;;;;;5023061;28;20227;-77
2022/03/06 10:49:13;;;;;;;17.87;13.87;;;5.80;98.20;;;;;;5023097;28;20257;-77
2022/03/06 10:51:45;;;;;;;14.20;11.87;;;5.90;98.80;;;;;;5024119;28;20665;-78
2022/03/06 10:54:14;;;;;;;16.27;13.47;;;6.00;98.80;;;;;;5020006;28;20209;-77
2022/03/06 10:56:43;;;;;;;15.43;12.60;;;5.90;98.50;;;;;;5005525;28;20223;-78
2022/03/06 10:59:11;;;;;;;15.50;13.53;;;5.90;98.80;;;;;;5028533;28;20226;-78
2022/03/06 11:01:39;;;;;;;14.23;12.73;;;5.90;98.30;;;;;;5021609;28;20201;-77
2022/03/06 11:04:07;;;;;;;15.77;13.10;;;5.80;98.50;;;;;;4998334;28;20292;-77
2022/03/06 11:06:40;;;;;;;17.20;13.47;;;5.90;98.50;;;;;;5007564;28;20222;-77
2022/03/06 11:09:12;;;;;;;16.47;13.60;;;6.00;98.20;;;;;;5012723;28;20285;-78
2022/03/06 11:11:41;;;;;;;15.97;13.47;;;6.20;98.60;;;;;;4996725;28;20212;-78
2022/03/06 11:14:10;;;;;;;14.70;12.30;;;6.10;97.90;;;;;;5017598;28;20211;-77
2022/03/06 11:16:37;;;;;;;15.27;12.50;;;6.20;98.00;;;;;;5023075;28;20726;-77
2022/03/06 11:19:05;;;;;;;15.67;13.20;;;6.20;97.50;;;;;;5011574;28;20769;-78
2022/03/06 11:21:34;;;;;;;16.73;13.33;;;6.10;97.60;;;;;;5014296;28;20202;-78
2022/03/06 11:24:08;;;;;;;15.67;12.73;;;6.20;97.70;;;;;;5013790;28;20685;-79
2022/03/06 11:27:02;;;;;;;16.67;12.73;;;6.30;97.30;;;;;;4993148;28;20711;-80
2022/03/06 11:30:00;;;;;;;14.70;11.83;;;6.30;97.30;;;;;;5012686;23;20632;-77
2022/03/06 11:32:29;;;;;;;14.60;11.87;;;6.50;97.20;;;;;;5007404;28;20203;-77
2022/03/06 11:35:05;;;;;;;15.40;12.63;;;6.60;96.90;;;;;;4996469;28;20275;-77
2022/03/06 11:37:46;;;;;;;15.40;12.33;;;6.60;97.80;;;;;;5007011;28;20198;-78
2022/03/06 11:40:39;;;;;;;13.80;12.40;;;6.80;97.40;;;;;;4992595;28;20755;-77
2022/03/06 11:43:09;;;;;;;15.00;12.63;;;6.90;96.70;;;;;;4968778;28;20257;-77
2022/03/06 11:45:51;;;;;;;15.27;12.53;;;7.00;96.20;;;;;;4984962;28;20223;-76
2022/03/06 11:48:37;;;;;;;14.10;12.60;;;7.00;96.20;;;;;;4989898;28;20714;-77
2022/03/06 11:51:27;;;;;;;14.83;12.73;;;7.00;96.60;;;;;;4978176;28;20618;-77
2022/03/06 11:53:55;;;;;;;14.13;12.63;;;7.30;97.50;;;;;;4971059;28;20196;-79
2022/03/06 11:56:45;;;;;;;15.70;12.83;;;7.20;96.00;;;;;;4991770;28;21244;-77
2022/03/06 11:59:24;;;;;;;14.40;12.73;;;7.10;96.20;;;;;;4982347;28;20229;-79
2022/03/06 12:01:53;;;;;;;18.70;12.63;;;6.80;96.30;;;;;;4990349;28;20196;-77
2022/03/06 12:04:22;;;;;;;15.40;13.27;;;6.70;96.50;;;;;;4996113;28;20304;-77
2022/03/06 12:06:52;;;;;;;16.43;12.97;;;6.70;96.60;;;;;;5003651;28;20220;-75
2022/03/06 12:09:20;;;;;;;15.40;12.83;;;6.90;96.70;;;;;;4991802;28;20230;-78
2022/03/06 12:11:48;;;;;;;14.00;12.50;;;7.00;96.60;;;;;;4996785;28;20200;-76
2022/03/06 12:14:20;;;;;;;15.33;13.10;;;7.20;96.30;;;;;;4998974;28;20207;-77
2022/03/06 12:17:22;;;;;;;15.37;13.57;;;7.20;96.20;;;;;;4979979;28;20645;-75
2022/03/06 12:20:12;;;;;;;15.77;13.43;;;7.30;96.10;;;;;;4963291;28;20221;-77
2022/03/06 12:22:46;;;;;;;14.63;13.13;;;7.30;96.00;;;;;;4973970;28;20204;-76
2022/03/06 12:25:24;;;;;;;14.67;12.60;;;7.30;96.70;;;;;;4976014;28;20210;-77
2022/03/06 12:28:24;;;;;;;14.53;12.33;;;7.60;96.80;;;;;;4962081;28;20229;-76
2022/03/06 12:30:53;;;;;;;14.43;12.47;;;7.70;95.50;;;;;;4984208;28;20319;-77
2022/03/06 12:33:39;;;;;;;15.07;12.10;;;7.50;96.00;;;;;;4993218;28;20197;-77
2022/03/06 12:36:27;;;;;;;14.17;12.53;;;7.60;96.30;;;;;;4990243;28;20474;-77
2022/03/06 12:38:59;;;;;;;14.70;12.93;;;7.70;96.40;;;;;;4983983;28;20679;-77